Time;durP1;ratioP1;P1;durP2;ratioP2;P2;SDS_P1;SDS_P2;PMS_P1;PMS_P2;Temp;Humidity;BMP_temperature;BMP_pressure;BME280_temperature;BME280_humidity;BME280_pressure;Samples;Min_cycle;Max_cycle;Signal;HPM_P1;HPM_P2
2024/03/07 00:05:24;;;;;;;20.3;12.4;;;;;;;3.23;89.62;99166.666666667;;;;
2024/03/07 00:15:21;;;;;;;20.3;12.4;;;;;;;3.2;89.93;99166.666666667;;;;
2024/03/07 00:26:21;;;;;;;20.8;12.1;;;;;;;3.17;89.77;99168.333333333;;;;
2024/03/07 00:36:21;;;;;;;20.8;12.1;;;;;;;3.32;89.7;99168.333333333;;;;
2024/03/07 00:47:21;;;;;;;20.8;12.1;;;;;;;3.17;89.84;99165;;;;
2024/03/07 00:57:21;;;;;;;18.2;11.5;;;;;;;3.21;89.67;99158.333333333;;;;
2024/03/07 01:07:23;;;;;;;18.2;11.5;;;;;;;3.2;89.78;99158.333333333;;;;
2024/03/07 01:18:21;;;;;;;18.2;11.5;;;;;;;3.25;89.96;99150;;;;
2024/03/07 01:29:22;;;;;;;21.3;12.8;;;;;;;3.31;89.79;99150;;;;
2024/03/07 01:39:21;;;;;;;21.3;12.8;;;;;;;3.17;90.28;99155;;;;
2024/03/07 01:49:22;;;;;;;21.3;12.8;;;;;;;3.1;90.3;99150;;;;
2024/03/07 02:00:21;;;;;;;20.2;12.5;;;;;;;3.06;90.35;99148.333333333;;;;
2024/03/07 02:11:23;;;;;;;20.2;12.5;;;;;;;3.11;90.03;99140;;;;
2024/03/07 02:22:21;;;;;;;20.2;12.5;;;;;;;3.08;89.79;99133.333333333;;;;
2024/03/07 02:32:23;;;;;;;23.8;12.7;;;;;;;3.03;89.57;99131.666666667;;;;
2024/03/07 02:43:22;;;;;;;23.8;12.7;;;;;;;2.98;89.15;99130;;;;
2024/03/07 02:53:21;;;;;;;23.8;12.7;;;;;;;2.82;89.27;99133.333333333;;;;
2024/03/07 03:04:22;;;;;;;23.2;12.8;;;;;;;2.85;89.48;99133.333333333;;;;
2024/03/07 03:14:21;;;;;;;23.2;12.8;;;;;;;2.75;90.03;99135;;;;
2024/03/07 03:25:23;;;;;;;30.1;14.7;;;;;;;2.57;90.36;99138.333333333;;;;
2024/03/07 03:35:21;;;;;;;30.1;14.7;;;;;;;2.52;90.18;99135;;;;
2024/03/07 03:45:21;;;;;;;30.1;14.7;;;;;;;2.44;90.17;99141.666666667;;;;
2024/03/07 03:55:22;;;;;;;29.2;15.5;;;;;;;2.38;90.32;99143.333333333;;;;
2024/03/07 04:05:22;;;;;;;29.2;15.5;;;;;;;2.44;89.92;99145;;;;
2024/03/07 04:16:22;;;;;;;29.2;15.5;;;;;;;2.34;90.33;99146.666666667;;;;
2024/03/07 04:27:22;;;;;;;29.2;14.9;;;;;;;2.02;91.08;99153.333333333;;;;
2024/03/07 04:38:21;;;;;;;29.2;14.9;;;;;;;2.03;91.54;99161.666666667;;;;
2024/03/07 04:49:23;;;;;;;29.2;14.9;;;;;;;2.06;91.73;99168.333333333;;;;
2024/03/07 04:59:22;;;;;;;29.8;14.8;;;;;;;2.1;91.51;99178.333333333;;;;
2024/03/07 05:10:21;;;;;;;29.8;14.8;;;;;;;1.97;91.79;99178.333333333;;;;
2024/03/07 05:21:41;;;;;;;29.8;14.8;;;;;;;1.83;91.47;99188.333333333;;;;
2024/03/07 05:31:21;;;;;;;26.8;16.9;;;;;;;1.83;91.71;99198.333333333;;;;
2024/03/07 05:41:22;;;;;;;26.8;16.9;;;;;;;1.85;91.63;99206.666666667;;;;
2024/03/07 05:51:22;;;;;;;26.8;16.9;;;;;;;1.81;91.59;99206.666666667;;;;
2024/03/07 06:01:23;;;;;;;25.6;13.4;;;;;;;1.62;91.49;99210;;;;
2024/03/07 06:12:22;;;;;;;25.6;13.4;;;;;;;1.66;90.79;99210;;;;
2024/03/07 06:23:22;;;;;;;25.6;13.4;;;;;;;1.62;90.24;99220;;;;
2024/03/07 06:33:22;;;;;;;28.4;15.8;;;;;;;1.69;90.45;99220;;;;
2024/03/07 06:43:22;;;;;;;28.4;15.8;;;;;;;1.59;90.14;99230;;;;
2024/03/07 06:54:21;;;;;;;32.7;17.3;;;;;;;1.62;89.46;99240;;;;
2024/03/07 07:04:23;;;;;;;32.7;17.3;;;;;;;1.59;89.19;99248.333333333;;;;
2024/03/07 07:15:22;;;;;;;32.7;17.3;;;;;;;1.65;88.7;99255;;;;
2024/03/07 07:25:22;;;;;;;31.3;17.7;;;;;;;1.66;88.31;99255;;;;
2024/03/07 07:36:22;;;;;;;31.3;17.7;;;;;;;1.65;88.21;99256.666666667;;;;
2024/03/07 07:47:22;;;;;;;31.3;17.7;;;;;;;1.81;87.93;99256.666666667;;;;
2024/03/07 07:58:22;;;;;;;31.5;17.4;;;;;;;1.74;87.62;99250;;;;
2024/03/07 08:08:22;;;;;;;31.5;17.4;;;;;;;1.85;87.35;99258.333333333;;;;
2024/03/07 08:19:23;;;;;;;31.5;17.4;;;;;;;1.7;87.74;99266.666666667;;;;
2024/03/07 08:30:22;;;;;;;30.8;17;;;;;;;1.62;87.25;99270;;;;
2024/03/07 08:41:22;;;;;;;30.8;17;;;;;;;1.75;87.28;99268.333333333;;;;
2024/03/07 08:52:22;;;;;;;30.8;17;;;;;;;1.64;87.18;99275;;;;
2024/03/07 09:03:23;;;;;;;27.4;15;;;;;;;1.6;87.77;99280;;;;
2024/03/07 09:14:22;;;;;;;27.4;15;;;;;;;1.57;87.21;99285;;;;
2024/03/07 09:24:22;;;;;;;28.1;16.6;;;;;;;1.89;86.71;99293.333333333;;;;
2024/03/07 09:35:22;;;;;;;28.1;16.6;;;;;;;1.76;86.05;99290;;;;
2024/03/07 09:45:22;;;;;;;28.1;16.6;;;;;;;1.97;85.89;99293.333333333;;;;
2024/03/07 09:55:24;;;;;;;26.5;14.9;;;;;;;1.92;86;99300;;;;
2024/03/07 10:06:22;;;;;;;26.5;14.9;;;;;;;1.86;86.35;99308.333333333;;;;
2024/03/07 10:16:22;;;;;;;26.5;14.9;;;;;;;1.9;86.43;99315;;;;
2024/03/07 10:26:22;;;;;;;28.4;15.1;;;;;;;1.81;85.8;99310;;;;
2024/03/07 10:37:22;;;;;;;28.4;15.1;;;;;;;1.79;86.34;99311.666666667;;;;
2024/03/07 10:48:21;;;;;;;28.4;15.1;;;;;;;2.05;85.88;99303.333333333;;;;
2024/03/07 10:58:24;;;;;;;28;16;;;;;;;2.04;84.74;99311.666666667;;;;
2024/03/07 11:08:23;;;;;;;28;16;;;;;;;2.07;85.07;99316.666666667;;;;
2024/03/07 11:19:22;;;;;;;28;16;;;;;;;2.18;84.95;99321.666666667;;;;
2024/03/07 11:29:22;;;;;;;26.1;16.3;;;;;;;1.97;85.09;99326.666666667;;;;
2024/03/07 11:39:24;;;;;;;26.1;16.3;;;;;;;2.22;84.38;99331.666666667;;;;
2024/03/07 11:50:22;;;;;;;26.1;16.3;;;;;;;2.13;84.44;99321.666666667;;;;
2024/03/07 12:01:27;;;;;;;21.4;12.8;;;;;;;2.18;84.49;99323.333333333;;;;
2024/03/07 12:11:25;;;;;;;21.4;12.8;;;;;;;2.11;84.76;99323.333333333;;;;
2024/03/07 12:22:22;;;;;;;21.4;12.8;;;;;;;2.31;84.38;99310;;;;
2024/03/07 12:32:22;;;;;;;24.8;13.4;;;;;;;2.41;84.44;99320;;;;
2024/03/07 12:43:22;;;;;;;24.8;13.4;;;;;;;2.46;84.35;99323.333333333;;;;
2024/03/07 12:53:22;;;;;;;23.7;14.7;;;;;;;2.44;83.57;99333.333333333;;;;
2024/03/07 13:04:22;;;;;;;23.7;14.7;;;;;;;2.44;83.61;99323.333333333;;;;
2024/03/07 13:15:24;;;;;;;23.7;14.7;;;;;;;2.7;82.9;99326.666666667;;;;
2024/03/07 13:25:22;;;;;;;25.4;12.6;;;;;;;2.93;82.95;99321.666666667;;;;
2024/03/07 13:36:24;;;;;;;25.4;12.6;;;;;;;3.17;82;99321.666666667;;;;
2024/03/07 13:46:22;;;;;;;25.4;12.6;;;;;;;3.6;80.96;99316.666666667;;;;
2024/03/07 13:56:22;;;;;;;21.6;12.9;;;;;;;3.73;80.19;99318.333333333;;;;
2024/03/07 14:07:22;;;;;;;21.6;12.9;;;;;;;3.95;80.51;99315;;;;
2024/03/07 14:18:22;;;;;;;21.6;12.9;;;;;;;3.69;80.05;99316.666666667;;;;
2024/03/07 14:28:22;;;;;;;18.6;10.7;;;;;;;3.87;80.06;99308.333333333;;;;
2024/03/07 14:39:23;;;;;;;18.6;10.7;;;;;;;3.97;79.47;99300;;;;
2024/03/07 14:50:22;;;;;;;18.6;10.7;;;;;;;3.81;79.82;99296.666666667;;;;
2024/03/07 15:00:26;;;;;;;19.7;12.8;;;;;;;3.85;80.24;99288.333333333;;;;
2024/03/07 15:11:23;;;;;;;19.7;12.8;;;;;;;3.77;80.8;99288.333333333;;;;
2024/03/07 15:21:22;;;;;;;19.7;12.8;;;;;;;3.67;80.16;99283.333333333;;;;
2024/03/07 15:32:22;;;;;;;60.4;28.6;;;;;;;3.66;79.63;99285;;;;
2024/03/07 15:42:22;;;;;;;60.4;28.6;;;;;;;3.49;78.79;99288.333333333;;;;
2024/03/07 15:52:22;;;;;;;60.4;28.6;;;;;;;3.53;78.58;99285;;;;
2024/03/07 16:03:23;;;;;;;17.6;9.8;;;;;;;3.42;77.56;99295;;;;
2024/03/07 16:14:22;;;;;;;17.6;9.8;;;;;;;3.37;77.55;99295;;;;
2024/03/07 16:24:22;;;;;;;16.7;9.8;;;;;;;3.42;77.56;99303.333333333;;;;
2024/03/07 16:34:22;;;;;;;16.7;9.8;;;;;;;3.3;77.68;99308.333333333;;;;
2024/03/07 16:44:22;;;;;;;16.7;9.8;;;;;;;3.32;78.09;99310;;;;
2024/03/07 16:55:22;;;;;;;20;12;;;;;;;3.35;77.72;99315;;;;
2024/03/07 17:05:22;;;;;;;20;12;;;;;;;3.4;77.07;99318.333333333;;;;
2024/03/07 17:15:22;;;;;;;20;12;;;;;;;3.34;76.66;99328.333333333;;;;
2024/03/07 17:26:22;;;;;;;20.4;11;;;;;;;3.37;77.02;99341.666666667;;;;
2024/03/07 17:36:22;;;;;;;20.4;11;;;;;;;3.33;76.86;99348.333333333;;;;
2024/03/07 17:47:22;;;;;;;20.4;11;;;;;;;3.23;77.76;99351.666666667;;;;
2024/03/07 17:58:22;;;;;;;28.5;15.8;;;;;;;3.17;77.79;99356.666666667;;;;
2024/03/07 18:09:27;;;;;;;28.5;15.8;;;;;;;3.13;78.1;99358.333333333;;;;
2024/03/07 18:19:22;;;;;;;28.5;15.8;;;;;;;3.07;78.79;99363.333333333;;;;
2024/03/07 18:30:22;;;;;;;22.6;13.6;;;;;;;3.13;78.73;99361.666666667;;;;
2024/03/07 18:40:23;;;;;;;22.6;13.6;;;;;;;2.93;79.15;99368.333333333;;;;
2024/03/07 18:50:22;;;;;;;22.6;13.6;;;;;;;2.78;79.07;99376.666666667;;;;
2024/03/07 19:01:22;;;;;;;25.4;14.7;;;;;;;2.7;79.46;99373.333333333;;;;
2024/03/07 19:11:22;;;;;;;25.4;14.7;;;;;;;2.74;79.45;99375;;;;
2024/03/07 19:22:22;;;;;;;25.4;14.7;;;;;;;2.61;79.18;99371.666666667;;;;
2024/03/07 19:32:22;;;;;;;17.6;11.7;;;;;;;2.4;79.8;99375;;;;
2024/03/07 19:43:23;;;;;;;17.6;11.7;;;;;;;2.47;79.92;99378.333333333;;;;
2024/03/07 19:53:22;;;;;;;21.1;12.7;;;;;;;2.4;80.45;99376.666666667;;;;
2024/03/07 20:04:24;;;;;;;21.1;12.7;;;;;;;2.36;79.84;99375;;;;
2024/03/07 20:15:23;;;;;;;21.1;12.7;;;;;;;2.17;80.1;99375;;;;
2024/03/07 20:25:23;;;;;;;20.8;11.8;;;;;;;2.12;80.5;99366.666666667;;;;
2024/03/07 20:36:23;;;;;;;20.8;11.8;;;;;;;1.99;80.93;99355;;;;
2024/03/07 20:46:22;;;;;;;20.8;11.8;;;;;;;1.93;81.03;99363.333333333;;;;
2024/03/07 20:56:22;;;;;;;19.9;11.3;;;;;;;1.96;81.04;99366.666666667;;;;
2024/03/07 21:06:23;;;;;;;19.9;11.3;;;;;;;2.02;81.13;99361.666666667;;;;
2024/03/07 21:17:22;;;;;;;19.9;11.3;;;;;;;1.9;81.27;99360;;;;
2024/03/07 21:28:22;;;;;;;22.6;12.3;;;;;;;1.86;81.76;99358.333333333;;;;
2024/03/07 21:38:22;;;;;;;22.6;12.3;;;;;;;1.83;81.41;99350;;;;
2024/03/07 21:48:24;;;;;;;22.6;12.3;;;;;;;1.78;81.75;99350;;;;
2024/03/07 21:59:22;;;;;;;21.5;12.6;;;;;;;1.73;81.71;99345;;;;
2024/03/07 22:09:22;;;;;;;21.5;12.6;;;;;;;1.84;81.26;99343.333333333;;;;
2024/03/07 22:20:23;;;;;;;21.5;12.6;;;;;;;1.72;81.58;99338.333333333;;;;
2024/03/07 22:31:22;;;;;;;18;11.2;;;;;;;1.65;81.67;99330;;;;
2024/03/07 22:41:22;;;;;;;18;11.2;;;;;;;1.52;81.8;99320;;;;
2024/03/07 22:51:22;;;;;;;18;11.2;;;;;;;1.67;81.77;99323.333333333;;;;
2024/03/07 23:02:22;;;;;;;20;10.2;;;;;;;1.7;81.42;99318.333333333;;;;
2024/03/07 23:13:22;;;;;;;20;10.2;;;;;;;1.71;81.67;99321.666666667;;;;
2024/03/07 23:24:22;;;;;;;20.4;10.6;;;;;;;1.74;81.44;99313.333333333;;;;
2024/03/07 23:35:22;;;;;;;20.4;10.6;;;;;;;1.74;81.33;99313.333333333;;;;
2024/03/07 23:45:22;;;;;;;20.4;10.6;;;;;;;1.6;81.51;99320;;;;
2024/03/07 23:55:22;;;;;;;19.7;11.7;;;;;;;1.65;80.88;99313.333333333;;;;
